Time;durP1;ratioP1;P1;durP2;ratioP2;P2;SDS_P1;SDS_P2;PMS_P1;PMS_P2;Temp;Humidity;BMP_temperature;BMP_pressure;BME280_temperature;BME280_humidity;BME280_pressure;Samples;Min_cycle;Max_cycle;Signal;HPM_P1;HPM_P2
2023/01/25 00:02:14;;;;;;;17.70;15.93;;;;;;;;;;6148647;23;20165;-73
2023/01/25 00:04:39;;;;;;;18.67;16.53;;;;;;;;;;6119061;23;20149;-73
2023/01/25 00:07:04;;;;;;;17.77;15.87;;;;;;;;;;6150569;23;20153;-73
2023/01/25 00:09:30;;;;;;;18.53;16.53;;;;;;;;;;6148292;23;20963;-73
2023/01/25 00:11:57;;;;;;;19.30;16.90;;;;;;;;;;6146634;23;20241;-73
2023/01/25 00:14:22;;;;;;;19.60;16.97;;;;;;;;;;6149955;23;20172;-72
2023/01/25 00:16:47;;;;;;;17.37;15.67;;;;;;;;;;6119899;23;20377;-74
2023/01/25 00:19:13;;;;;;;17.50;15.80;;;;;;;;;;6148825;23;20153;-73
2023/01/25 00:21:38;;;;;;;21.30;16.73;;;;;;;;;;6145723;23;20529;-73
2023/01/25 00:24:04;;;;;;;19.50;17.50;;;;;;;;;;6123484;23;20231;-73
2023/01/25 00:26:30;;;;;;;19.37;17.37;;;;;;;;;;6124062;23;20619;-73
2023/01/25 00:28:55;;;;;;;19.00;16.87;;;;;;;;;;6124400;23;20153;-73
2023/01/25 00:31:25;;;;;;;18.57;16.63;;;;;;;;;;6151118;23;20739;-73
2023/01/25 00:34:00;;;;;;;18.63;16.30;;;;;;;;;;6150755;23;20153;-73
2023/01/25 00:36:30;;;;;;;20.50;18.00;;;;;;;;;;6151520;23;20368;-73
2023/01/25 00:38:56;;;;;;;19.97;17.87;;;;;;;;;;6124808;23;20818;-73
2023/01/25 00:41:21;;;;;;;22.57;18.90;;;;;;;;;;6151114;23;20413;-73
2023/01/25 00:43:47;;;;;;;21.80;19.20;;;;;;;;;;6151432;23;20369;-73
2023/01/25 00:46:16;;;;;;;20.70;18.00;;;;;;;;;;6150986;23;20149;-73
2023/01/25 00:48:41;;;;;;;21.67;19.30;;;;;;;;;;6150468;23;20191;-73
2023/01/25 00:51:07;;;;;;;20.87;17.30;;;;;;;;;;6125337;23;20388;-73
2023/01/25 00:53:32;;;;;;;21.10;18.57;;;;;;;;;;6151453;23;20197;-73
2023/01/25 00:55:58;;;;;;;21.07;18.00;;;;;;;;;;6150905;23;20520;-73
2023/01/25 00:58:23;;;;;;;23.07;19.50;;;;;;;;;;6149970;23;20209;-73
2023/01/25 01:00:48;;;;;;;21.93;19.57;;;;;;;;;;6151442;23;20180;-73
2023/01/25 01:03:14;;;;;;;20.80;18.60;;;;;;;;;;6150661;23;20648;-73
2023/01/25 01:05:39;;;;;;;21.57;19.27;;;;;;;;;;6150486;23;20481;-73
2023/01/25 01:08:05;;;;;;;25.43;20.00;;;;;;;;;;6149873;23;20815;-73
2023/01/25 01:10:30;;;;;;;20.70;18.50;;;;;;;;;;6125302;23;20210;-73
2023/01/25 01:12:55;;;;;;;23.30;18.93;;;;;;;;;;6150911;23;20212;-73
2023/01/25 01:15:21;;;;;;;22.17;18.40;;;;;;;;;;6151649;23;20228;-72
2023/01/25 01:17:46;;;;;;;22.90;19.40;;;;;;;;;;6149966;23;20164;-73
2023/01/25 01:20:11;;;;;;;21.80;19.43;;;;;;;;;;6149867;23;20173;-73
2023/01/25 01:22:38;;;;;;;20.97;18.77;;;;;;;;;;6148372;23;20537;-73
2023/01/25 01:25:03;;;;;;;20.53;18.30;;;;;;;;;;6123472;23;20387;-73
2023/01/25 01:27:29;;;;;;;23.57;20.27;;;;;;;;;;6148176;23;20240;-73
2023/01/25 01:29:54;;;;;;;23.63;19.50;;;;;;;;;;6150574;23;20920;-73
2023/01/25 01:32:19;;;;;;;20.80;18.47;;;;;;;;;;6148115;23;20165;-73
2023/01/25 01:34:45;;;;;;;21.63;18.80;;;;;;;;;;6120483;23;20236;-73
2023/01/25 01:37:10;;;;;;;19.23;17.07;;;;;;;;;;6120455;23;20212;-72
2023/01/25 01:39:37;;;;;;;23.60;19.03;;;;;;;;;;6147817;23;20141;-73
2023/01/25 01:42:03;;;;;;;21.07;18.00;;;;;;;;;;6149256;23;20185;-73
2023/01/25 01:44:42;;;;;;;20.40;17.83;;;;;;;;;;6122869;23;20724;-73
2023/01/25 01:47:11;;;;;;;22.43;19.03;;;;;;;;;;6147985;23;20145;-73
2023/01/25 01:49:36;;;;;;;20.90;17.70;;;;;;;;;;6147294;23;20373;-73
2023/01/25 01:52:03;;;;;;;23.37;19.40;;;;;;;;;;6147725;23;20443;-73
2023/01/25 01:54:34;;;;;;;23.93;19.73;;;;;;;;;;6148588;23;20160;-73
2023/01/25 01:57:05;;;;;;;22.70;19.13;;;;;;;;;;6125156;23;20863;-73
2023/01/25 01:59:33;;;;;;;22.57;18.60;;;;;;;;;;6150265;23;20375;-73
2023/01/25 02:01:59;;;;;;;21.60;18.80;;;;;;;;;;6151263;23;20478;-73
2023/01/25 02:04:25;;;;;;;21.53;19.03;;;;;;;;;;6150656;23;20376;-73
2023/01/25 02:07:00;;;;;;;21.00;18.70;;;;;;;;;;6123488;23;20680;-73
2023/01/25 02:09:26;;;;;;;23.80;19.80;;;;;;;;;;6149289;23;20368;-73
2023/01/25 02:11:52;;;;;;;21.50;18.37;;;;;;;;;;6151139;23;20471;-73
2023/01/25 02:14:18;;;;;;;23.77;20.63;;;;;;;;;;6150196;23;20357;-73
2023/01/25 02:16:44;;;;;;;25.37;19.60;;;;;;;;;;6151189;23;20154;-73
2023/01/25 02:19:12;;;;;;;25.77;19.97;;;;;;;;;;6149922;23;20531;-72
2023/01/25 02:21:39;;;;;;;24.20;20.47;;;;;;;;;;6151784;23;20181;-72
2023/01/25 02:24:05;;;;;;;23.57;19.70;;;;;;;;;;6150620;23;20373;-73
2023/01/25 02:26:30;;;;;;;23.63;20.87;;;;;;;;;;6125334;23;20459;-73
2023/01/25 02:29:03;;;;;;;25.27;21.07;;;;;;;;;;6120830;23;20152;-73
2023/01/25 02:31:28;;;;;;;22.33;19.77;;;;;;;;;;6122225;23;20280;-73
2023/01/25 02:33:54;;;;;;;22.27;19.40;;;;;;;;;;6123813;23;20424;-73
2023/01/25 02:36:21;;;;;;;23.77;21.17;;;;;;;;;;6149941;23;20234;-72
2023/01/25 02:38:58;;;;;;;26.30;21.60;;;;;;;;;;6150430;23;20155;-73
2023/01/25 02:41:26;;;;;;;26.63;21.13;;;;;;;;;;6149926;23;20487;-73
2023/01/25 02:43:52;;;;;;;25.77;20.93;;;;;;;;;;6124814;23;20381;-73
2023/01/25 02:46:21;;;;;;;23.40;20.10;;;;;;;;;;6150593;23;20400;-73
2023/01/25 02:48:46;;;;;;;23.63;20.07;;;;;;;;;;6124075;23;20153;-73
2023/01/25 02:51:11;;;;;;;23.80;20.20;;;;;;;;;;6123657;23;20871;-73
2023/01/25 02:53:37;;;;;;;23.23;20.10;;;;;;;;;;6149789;23;20612;-73
2023/01/25 02:56:02;;;;;;;26.13;21.80;;;;;;;;;;6149764;23;20152;-73
2023/01/25 02:58:27;;;;;;;26.20;21.10;;;;;;;;;;6150019;23;20855;-73
2023/01/25 03:00:54;;;;;;;25.93;20.83;;;;;;;;;;6124650;23;20204;-73
2023/01/25 03:03:22;;;;;;;27.13;21.20;;;;;;;;;;6125921;23;20256;-73
2023/01/25 03:05:47;;;;;;;23.67;20.20;;;;;;;;;;6125593;23;20384;-73
2023/01/25 03:08:12;;;;;;;24.43;19.97;;;;;;;;;;6151623;23;20365;-73
2023/01/25 03:10:38;;;;;;;26.03;21.20;;;;;;;;;;6151365;23;20149;-73
2023/01/25 03:13:03;;;;;;;24.27;21.20;;;;;;;;;;6157283;23;20654;-73
2023/01/25 03:15:28;;;;;;;26.47;22.00;;;;;;;;;;6181578;23;20171;-73
2023/01/25 03:17:54;;;;;;;23.53;19.93;;;;;;;;;;6178091;23;20151;-73
2023/01/25 03:20:19;;;;;;;23.77;20.83;;;;;;;;;;6180815;23;20179;-73
2023/01/25 03:22:45;;;;;;;25.50;21.10;;;;;;;;;;6178774;23;20803;-72
2023/01/25 03:25:10;;;;;;;26.60;21.47;;;;;;;;;;6180464;23;20152;-73
2023/01/25 03:27:35;;;;;;;26.63;22.80;;;;;;;;;;6178022;23;20235;-73
2023/01/25 03:30:00;;;;;;;28.10;22.00;;;;;;;;;;6180740;23;20538;-73
2023/01/25 03:32:26;;;;;;;27.40;23.57;;;;;;;;;;6182424;23;20199;-73
2023/01/25 03:34:51;;;;;;;26.40;22.30;;;;;;;;;;6177625;23;20152;-73
2023/01/25 03:37:16;;;;;;;28.80;23.80;;;;;;;;;;6182924;23;20610;-72
2023/01/25 03:39:41;;;;;;;28.90;23.00;;;;;;;;;;6176729;23;20159;-73
2023/01/25 03:42:07;;;;;;;30.57;24.20;;;;;;;;;;6182020;23;20192;-72
2023/01/25 03:44:32;;;;;;;29.37;23.43;;;;;;;;;;6181009;23;20176;-73
2023/01/25 03:46:57;;;;;;;27.47;23.43;;;;;;;;;;6182529;23;20171;-73
2023/01/25 03:49:23;;;;;;;28.20;23.73;;;;;;;;;;6179664;23;20220;-72
2023/01/25 03:51:48;;;;;;;28.20;21.77;;;;;;;;;;6180134;23;20517;-72
2023/01/25 03:54:13;;;;;;;25.97;22.47;;;;;;;;;;6182573;23;20144;-72
2023/01/25 03:56:38;;;;;;;28.20;24.50;;;;;;;;;;6181511;23;20149;-72
2023/01/25 03:59:04;;;;;;;27.20;22.23;;;;;;;;;;6181117;23;20628;-73
2023/01/25 04:01:29;;;;;;;27.43;22.80;;;;;;;;;;6182019;23;20218;-72
2023/01/25 04:03:54;;;;;;;28.57;23.43;;;;;;;;;;6179839;23;20156;-72
2023/01/25 04:06:19;;;;;;;28.13;23.60;;;;;;;;;;6180690;23;20144;-73
2023/01/25 04:08:45;;;;;;;29.77;24.10;;;;;;;;;;6176829;23;20214;-73
2023/01/25 04:11:10;;;;;;;28.60;22.23;;;;;;;;;;6178993;23;20179;-73
2023/01/25 04:13:36;;;;;;;27.60;23.20;;;;;;;;;;6178110;23;20410;-73
2023/01/25 04:16:06;;;;;;;33.20;26.00;;;;;;;;;;6178650;23;20156;-73
2023/01/25 04:18:31;;;;;;;30.37;25.63;;;;;;;;;;6178054;23;20369;-73
2023/01/25 04:20:56;;;;;;;28.80;24.17;;;;;;;;;;6179520;23;20407;-72
2023/01/25 04:23:22;;;;;;;31.03;24.80;;;;;;;;;;6180530;23;20168;-73
2023/01/25 04:25:54;;;;;;;26.27;22.70;;;;;;;;;;6181638;23;20203;-72
2023/01/25 04:28:23;;;;;;;29.45;24.00;;;;;;;;;;6177243;23;20364;-74
2023/01/25 04:30:54;;;;;;;29.67;24.70;;;;;;;;;;6144930;23;20794;-74
2023/01/25 04:33:21;;;;;;;28.97;24.03;;;;;;;;;;6122589;23;20889;-73
2023/01/25 04:35:52;;;;;;;28.90;23.70;;;;;;;;;;6121895;23;20373;-73
2023/01/25 04:38:20;;;;;;;29.83;24.70;;;;;;;;;;6148869;23;20827;-73
2023/01/25 04:40:50;;;;;;;30.70;24.97;;;;;;;;;;6150471;23;20424;-73
2023/01/25 04:43:24;;;;;;;28.47;24.87;;;;;;;;;;6123564;23;20374;-73
2023/01/25 04:45:52;;;;;;;31.50;26.10;;;;;;;;;;6124809;23;20488;-74
2023/01/25 04:48:18;;;;;;;28.80;24.57;;;;;;;;;;6146598;23;20864;-73
2023/01/25 04:50:46;;;;;;;27.70;23.40;;;;;;;;;;6122868;23;20415;-73
2023/01/25 04:53:14;;;;;;;28.10;23.20;;;;;;;;;;6147108;23;20153;-73
2023/01/25 04:55:43;;;;;;;28.30;24.60;;;;;;;;;;6150275;23;20365;-73
2023/01/25 04:58:10;;;;;;;27.93;24.13;;;;;;;;;;6148749;23;20375;-74
2023/01/25 05:00:38;;;;;;;29.17;24.87;;;;;;;;;;6150300;23;20423;-74
2023/01/25 05:03:11;;;;;;;29.50;25.53;;;;;;;;;;6147985;23;20379;-73
2023/01/25 05:05:36;;;;;;;29.23;26.15;;;;;;;;;;6148292;23;20372;-73
2023/01/25 05:08:03;;;;;;;34.80;27.73;;;;;;;;;;6123565;23;20153;-73
2023/01/25 05:10:31;;;;;;;30.13;25.40;;;;;;;;;;6150372;23;20216;-73
2023/01/25 05:13:01;;;;;;;29.83;24.80;;;;;;;;;;6149353;23;20377;-74
2023/01/25 05:15:31;;;;;;;28.87;24.17;;;;;;;;;;6149605;23;20923;-73
2023/01/25 05:17:58;;;;;;;29.97;24.83;;;;;;;;;;6147881;23;20383;-74
2023/01/25 05:20:28;;;;;;;29.10;23.70;;;;;;;;;;6149986;23;20412;-73
2023/01/25 05:23:01;;;;;;;31.53;25.60;;;;;;;;;;6149776;23;20879;-73
2023/01/25 05:28:12;;;;;;;30.83;27.73;;;;;;;;;;6145232;23;20411;-74
2023/01/25 05:30:38;;;;;;;32.17;28.67;;;;;;;;;;6151329;23;20612;-74
2023/01/25 05:33:08;;;;;;;30.87;26.53;;;;;;;;;;6151916;23;20173;-74
2023/01/25 05:35:35;;;;;;;31.23;28.13;;;;;;;;;;6154810;23;20438;-74
2023/01/25 05:38:01;;;;;;;31.40;27.73;;;;;;;;;;6149630;23;20365;-74
2023/01/25 05:40:30;;;;;;;31.50;26.93;;;;;;;;;;6148787;23;20750;-74
2023/01/25 05:42:58;;;;;;;31.87;25.60;;;;;;;;;;6148918;23;20172;-74
2023/01/25 05:45:28;;;;;;;32.30;24.83;;;;;;;;;;6124632;23;20760;-74
2023/01/25 05:47:59;;;;;;;34.07;25.47;;;;;;;;;;6150114;23;20388;-74
2023/01/25 05:50:29;;;;;;;36.60;27.87;;;;;;;;;;6147290;23;20420;-74
2023/01/25 05:53:00;;;;;;;32.40;25.47;;;;;;;;;;6149930;23;20385;-74
2023/01/25 06:08:33;;;;;;;33.97;28.23;;;;;;;;;;5922105;22;6911857;-72
2023/01/25 06:10:58;;;;;;;33.83;28.53;;;;;;;;;;6218439;23;20411;-72
2023/01/25 06:13:23;;;;;;;31.17;25.80;;;;;;;;;;6191744;23;20178;-72
2023/01/25 06:15:52;;;;;;;38.93;27.40;;;;;;;;;;6218445;23;20167;-72
2023/01/25 06:18:18;;;;;;;36.63;28.90;;;;;;;;;;6218689;23;20152;-72
2023/01/25 06:20:43;;;;;;;36.00;27.00;;;;;;;;;;6218035;23;20383;-72
2023/01/25 06:23:11;;;;;;;37.63;27.30;;;;;;;;;;6192478;23;20179;-73
2023/01/25 06:25:36;;;;;;;34.50;26.80;;;;;;;;;;6218282;23;20468;-74
2023/01/25 06:28:01;;;;;;;36.30;27.80;;;;;;;;;;6217530;23;20374;-71
2023/01/25 06:30:26;;;;;;;35.07;28.50;;;;;;;;;;6191706;23;20155;-72
2023/01/25 06:32:52;;;;;;;36.10;30.27;;;;;;;;;;6218837;23;20571;-71
2023/01/25 06:35:17;;;;;;;34.50;27.47;;;;;;;;;;6191605;23;20205;-72
2023/01/25 06:37:42;;;;;;;37.30;30.30;;;;;;;;;;6216271;23;20154;-72
2023/01/25 06:40:08;;;;;;;39.00;29.90;;;;;;;;;;6215578;23;20587;-71
2023/01/25 06:42:33;;;;;;;38.83;30.63;;;;;;;;;;6218774;23;20310;-72
2023/01/25 06:44:58;;;;;;;43.90;33.97;;;;;;;;;;6215157;23;20144;-71
2023/01/25 06:47:23;;;;;;;53.77;40.40;;;;;;;;;;6219848;23;20167;-73
2023/01/25 06:49:49;;;;;;;41.77;29.80;;;;;;;;;;6220373;23;20158;-71
2023/01/25 06:52:14;;;;;;;38.63;30.13;;;;;;;;;;6220628;23;20230;-72
2023/01/25 06:54:40;;;;;;;38.37;30.57;;;;;;;;;;6194354;23;20151;-72
2023/01/25 06:57:05;;;;;;;37.90;29.00;;;;;;;;;;6193901;23;20155;-73
2023/01/25 06:59:33;;;;;;;36.30;28.20;;;;;;;;;;6193251;23;20589;-71
2023/01/25 07:01:58;;;;;;;33.47;26.40;;;;;;;;;;6190133;23;20527;-72
2023/01/25 07:04:23;;;;;;;38.87;29.03;;;;;;;;;;6214727;23;20376;-72
2023/01/25 07:06:49;;;;;;;35.23;26.57;;;;;;;;;;6214561;23;20187;-71
2023/01/25 07:09:14;;;;;;;39.10;28.43;;;;;;;;;;6210893;23;20517;-72
2023/01/25 07:11:39;;;;;;;36.43;27.97;;;;;;;;;;6183710;23;20160;-71
2023/01/25 07:14:04;;;;;;;33.83;27.30;;;;;;;;;;6181760;23;20143;-73
2023/01/25 07:16:35;;;;;;;37.63;29.63;;;;;;;;;;6213306;23;20151;-72
2023/01/25 07:19:01;;;;;;;39.50;27.83;;;;;;;;;;6185341;23;20510;-72
2023/01/25 07:21:26;;;;;;;37.13;29.60;;;;;;;;;;6212348;23;20498;-72
2023/01/25 07:23:52;;;;;;;35.77;28.50;;;;;;;;;;6210175;23;20457;-72
2023/01/25 07:26:17;;;;;;;37.20;28.63;;;;;;;;;;6212531;23;20178;-72
2023/01/25 07:28:43;;;;;;;37.87;28.83;;;;;;;;;;6210638;23;20612;-71
2023/01/25 07:31:08;;;;;;;41.20;29.47;;;;;;;;;;6211090;23;20707;-72
2023/01/25 07:33:34;;;;;;;37.13;26.53;;;;;;;;;;6184686;23;20172;-72
2023/01/25 07:36:00;;;;;;;36.77;27.60;;;;;;;;;;6210723;23;20155;-72
2023/01/25 07:38:25;;;;;;;38.63;29.50;;;;;;;;;;6209873;23;20206;-72
2023/01/25 07:40:52;;;;;;;41.03;29.67;;;;;;;;;;6183947;23;20383;-71
2023/01/25 07:43:20;;;;;;;41.10;30.10;;;;;;;;;;6181650;23;20226;-72
2023/01/25 07:45:48;;;;;;;40.07;30.50;;;;;;;;;;6210290;23;20861;-71
2023/01/25 07:48:17;;;;;;;39.73;29.97;;;;;;;;;;6183414;23;20429;-72
2023/01/25 07:50:48;;;;;;;38.87;29.93;;;;;;;;;;6182471;23;20379;-71
2023/01/25 07:53:13;;;;;;;41.00;31.93;;;;;;;;;;6182607;23;20453;-72
2023/01/25 07:55:39;;;;;;;45.80;32.00;;;;;;;;;;6208991;23;21078;-72
2023/01/25 07:58:04;;;;;;;45.27;34.03;;;;;;;;;;6183089;23;20156;-73
2023/01/25 08:00:29;;;;;;;44.60;34.33;;;;;;;;;;6211959;23;20223;-72
2023/01/25 08:02:55;;;;;;;50.83;34.60;;;;;;;;;;6184139;23;20176;-71
2023/01/25 08:05:20;;;;;;;46.47;33.07;;;;;;;;;;6210715;23;20159;-73
2023/01/25 08:07:46;;;;;;;44.30;34.57;;;;;;;;;;6210403;23;20242;-72
2023/01/25 08:10:12;;;;;;;45.77;35.10;;;;;;;;;;6187031;23;20158;-72
2023/01/25 08:12:37;;;;;;;46.87;34.87;;;;;;;;;;6186257;23;20785;-71
2023/01/25 08:15:03;;;;;;;44.50;32.77;;;;;;;;;;6186490;23;20603;-73
2023/01/25 08:17:31;;;;;;;47.83;36.67;;;;;;;;;;6186197;23;20155;-71
2023/01/25 08:19:57;;;;;;;45.00;33.67;;;;;;;;;;6212936;23;20485;-71
2023/01/25 08:22:23;;;;;;;47.07;34.20;;;;;;;;;;6183956;23;20418;-72
2023/01/25 08:24:49;;;;;;;47.77;36.00;;;;;;;;;;6186294;23;20379;-72
2023/01/25 08:27:14;;;;;;;51.93;36.50;;;;;;;;;;6213175;23;20222;-71
2023/01/25 08:29:40;;;;;;;52.00;35.80;;;;;;;;;;6212896;23;20198;-73
2023/01/25 08:32:06;;;;;;;48.43;32.13;;;;;;;;;;6186706;23;20182;-71
2023/01/25 08:34:32;;;;;;;47.10;34.63;;;;;;;;;;6212404;23;20144;-73
2023/01/25 08:36:57;;;;;;;44.60;33.43;;;;;;;;;;6210732;23;20392;-72
2023/01/25 08:39:22;;;;;;;52.10;35.27;;;;;;;;;;6183663;23;20155;-71
2023/01/25 08:41:48;;;;;;;45.17;32.70;;;;;;;;;;6183088;23;20163;-72
2023/01/25 08:44:13;;;;;;;47.17;35.70;;;;;;;;;;6180379;23;20658;-70
2023/01/25 08:46:43;;;;;;;46.77;33.20;;;;;;;;;;6208689;23;20225;-72
2023/01/25 08:49:09;;;;;;;46.57;34.67;;;;;;;;;;6212012;23;20143;-72
2023/01/25 08:51:34;;;;;;;46.53;33.40;;;;;;;;;;6208029;23;20367;-70
2023/01/25 08:54:04;;;;;;;47.53;33.50;;;;;;;;;;6179941;23;20178;-71
2023/01/25 08:56:29;;;;;;;55.40;36.20;;;;;;;;;;6212006;23;20275;-72
2023/01/25 08:58:54;;;;;;;50.20;35.30;;;;;;;;;;6185961;23;20411;-72
2023/01/25 09:01:20;;;;;;;55.80;35.27;;;;;;;;;;6185627;23;25051;-72
2023/01/25 09:03:47;;;;;;;53.90;36.53;;;;;;;;;;6180367;23;20184;-72
2023/01/25 09:06:12;;;;;;;49.33;35.87;;;;;;;;;;6182352;23;25044;-72
2023/01/25 09:08:38;;;;;;;48.70;33.30;;;;;;;;;;6182661;23;20499;-72
2023/01/25 09:11:04;;;;;;;54.53;36.73;;;;;;;;;;6210993;23;20642;-72
2023/01/25 09:13:30;;;;;;;51.63;37.50;;;;;;;;;;6182822;23;20502;-72
2023/01/25 09:16:01;;;;;;;49.93;37.30;;;;;;;;;;6210499;23;20428;-72
2023/01/25 09:18:27;;;;;;;47.77;34.83;;;;;;;;;;6184187;23;20155;-72
2023/01/25 09:20:53;;;;;;;51.40;36.67;;;;;;;;;;6211005;23;25096;-72
2023/01/25 09:23:21;;;;;;;52.50;35.73;;;;;;;;;;6211575;23;20470;-71
2023/01/25 09:25:47;;;;;;;48.40;35.03;;;;;;;;;;6184022;23;25071;-71
2023/01/25 09:28:12;;;;;;;50.23;36.10;;;;;;;;;;6209461;23;25158;-72
2023/01/25 09:30:38;;;;;;;51.50;37.70;;;;;;;;;;6210306;23;25074;-72
2023/01/25 09:33:03;;;;;;;48.10;36.40;;;;;;;;;;6182950;23;25051;-72
2023/01/25 09:35:29;;;;;;;52.50;36.97;;;;;;;;;;6206158;23;25045;-72
2023/01/25 09:37:55;;;;;;;49.10;38.47;;;;;;;;;;6181758;23;25045;-72
2023/01/25 09:40:21;;;;;;;47.10;35.30;;;;;;;;;;6181223;23;25060;-72
2023/01/25 09:42:59;;;;;;;48.00;34.77;;;;;;;;;;6209593;23;25032;-72
2023/01/25 09:45:29;;;;;;;43.93;33.57;;;;;;;;;;6180974;23;20420;-72
2023/01/25 09:48:12;;;;;;;45.80;33.90;;;;;;;;;;6207332;23;25114;-72
2023/01/25 09:50:58;;;;;;;43.53;33.60;;;;;;;;;;6211177;23;25085;-72
2023/01/25 09:53:23;;;;;;;42.57;31.87;;;;;;;;;;6185550;23;25067;-72
2023/01/25 09:55:58;;;;;;;44.87;33.80;;;;;;;;;;6213128;23;25134;-72
2023/01/25 09:58:26;;;;;;;42.47;30.50;;;;;;;;;;6212246;23;25115;-72
2023/01/25 10:01:04;;;;;;;40.17;30.57;;;;;;;;;;6209068;23;20249;-71
2023/01/25 10:03:44;;;;;;;41.23;31.43;;;;;;;;;;6210814;23;20830;-72
2023/01/25 10:06:11;;;;;;;40.37;32.23;;;;;;;;;;6210218;23;20447;-72
2023/01/25 10:08:41;;;;;;;38.90;29.87;;;;;;;;;;6183512;23;20412;-73
2023/01/25 10:11:12;;;;;;;38.50;29.27;;;;;;;;;;6211029;23;20364;-72
2023/01/25 10:13:38;;;;;;;39.63;28.77;;;;;;;;;;6183871;23;20397;-72
2023/01/25 10:16:05;;;;;;;37.57;29.10;;;;;;;;;;6210413;23;20446;-71
2023/01/25 10:18:37;;;;;;;36.20;28.53;;;;;;;;;;6182775;23;20157;-72
2023/01/25 10:21:10;;;;;;;38.13;28.67;;;;;;;;;;6210456;23;20371;-71
2023/01/25 10:23:41;;;;;;;38.17;28.60;;;;;;;;;;6183886;23;25113;-71
2023/01/25 10:26:09;;;;;;;36.90;28.47;;;;;;;;;;6212280;23;25063;-72
2023/01/25 10:28:43;;;;;;;36.67;28.40;;;;;;;;;;6207224;23;25150;-72
2023/01/25 10:31:30;;;;;;;32.67;26.97;;;;;;;;;;6209953;23;25075;-72
2023/01/25 10:33:55;;;;;;;36.20;27.40;;;;;;;;;;6183563;23;25075;-71
2023/01/25 10:36:26;;;;;;;37.77;28.10;;;;;;;;;;6185057;23;25082;-72
2023/01/25 10:38:58;;;;;;;35.70;25.77;;;;;;;;;;6209853;23;25084;-72
2023/01/25 10:41:23;;;;;;;36.23;27.80;;;;;;;;;;6210656;23;20841;-72
2023/01/25 10:44:20;;;;;;;35.43;28.77;;;;;;;;;;6212237;23;25082;-72
2023/01/25 10:46:34;;;;;;;36.97;28.07;;;;;;;;;;6210934;23;25099;-73
2023/01/25 10:49:02;;;;;;;35.60;28.20;;;;;;;;;;6213483;23;20365;-72
2023/01/25 10:51:28;;;;;;;37.80;29.20;;;;;;;;;;6213215;23;25048;-72
2023/01/25 10:54:01;;;;;;;36.70;27.63;;;;;;;;;;6186677;23;25057;-72
2023/01/25 10:59:27;;;;;;;36.40;27.93;;;;;;;;;;5090584;27;20905;-72
2023/01/25 11:02:01;;;;;;;35.30;26.77;;;;;;;;;;5077032;28;21032;-71
2023/01/25 11:04:31;;;;;;;36.13;28.63;;;;;;;;;;5076909;28;25114;-72
2023/01/25 11:06:57;;;;;;;39.43;28.60;;;;;;;;;;5074394;28;20437;-72
2023/01/25 11:09:28;;;;;;;35.53;27.23;;;;;;;;;;5083722;28;20423;-72
2023/01/25 11:11:53;;;;;;;37.50;28.90;;;;;;;;;;5086856;28;25048;-72
2023/01/25 11:14:18;;;;;;;35.73;27.90;;;;;;;;;;5081682;28;25083;-72
2023/01/25 11:16:45;;;;;;;40.67;30.73;;;;;;;;;;5085530;28;25074;-72
2023/01/25 11:19:24;;;;;;;42.60;29.07;;;;;;;;;;5083626;28;20258;-72
2023/01/25 11:21:53;;;;;;;37.67;29.80;;;;;;;;;;5067416;28;20414;-72
2023/01/25 11:24:19;;;;;;;36.97;27.37;;;;;;;;;;5086034;28;25099;-72
2023/01/25 11:26:44;;;;;;;35.50;25.30;;;;;;;;;;5068000;28;20774;-72
2023/01/25 11:29:13;;;;;;;35.60;26.70;;;;;;;;;;5086228;28;20180;-72
2023/01/25 11:31:40;;;;;;;37.40;27.20;;;;;;;;;;5081331;28;25070;-72
2023/01/25 11:34:13;;;;;;;36.27;28.40;;;;;;;;;;5087378;28;20446;-72
2023/01/25 11:36:44;;;;;;;35.10;25.50;;;;;;;;;;5085261;28;20409;-72
2023/01/25 11:39:14;;;;;;;40.70;31.00;;;;;;;;;;5085533;28;20421;-72
2023/01/25 11:41:45;;;;;;;37.30;29.30;;;;;;;;;;5066811;28;25102;-72
2023/01/25 11:44:26;;;;;;;37.67;26.40;;;;;;;;;;5071629;28;25114;-72
2023/01/25 11:47:00;;;;;;;39.30;27.73;;;;;;;;;;5067539;28;25169;-71
2023/01/25 11:49:31;;;;;;;37.40;27.63;;;;;;;;;;5087354;28;20402;-71
2023/01/25 11:52:15;;;;;;;40.37;30.40;;;;;;;;;;5086658;28;20489;-71
2023/01/25 11:54:53;;;;;;;37.73;27.27;;;;;;;;;;5076089;28;20405;-71
2023/01/25 11:57:36;;;;;;;40.63;28.67;;;;;;;;;;5083208;28;25107;-71
2023/01/25 12:00:09;;;;;;;40.73;28.47;;;;;;;;;;5086258;28;25182;-71
2023/01/25 12:02:53;;;;;;;45.73;28.50;;;;;;;;;;5067287;28;25084;-71
2023/01/25 12:05:31;;;;;;;39.30;27.33;;;;;;;;;;5083604;28;25095;-71
2023/01/25 12:07:56;;;;;;;42.63;30.30;;;;;;;;;;5085340;28;25101;-71
2023/01/25 12:10:22;;;;;;;40.23;28.00;;;;;;;;;;5072796;28;25091;-70
2023/01/25 12:12:56;;;;;;;42.53;29.90;;;;;;;;;;5056208;28;25096;-71
2023/01/25 12:15:42;;;;;;;44.27;30.20;;;;;;;;;;5056829;28;25082;-70
2023/01/25 12:18:07;;;;;;;48.37;29.70;;;;;;;;;;5071765;28;25119;-70
2023/01/25 12:20:32;;;;;;;45.23;28.97;;;;;;;;;;5071096;28;25175;-71
2023/01/25 12:23:07;;;;;;;39.63;27.80;;;;;;;;;;5072219;28;20242;-71
2023/01/25 12:25:51;;;;;;;41.13;27.27;;;;;;;;;;5062400;28;25086;-71
2023/01/25 12:28:26;;;;;;;41.00;27.33;;;;;;;;;;5073175;28;20876;-70
2023/01/25 12:30:55;;;;;;;46.17;28.07;;;;;;;;;;5073212;28;25133;-70
2023/01/25 12:33:28;;;;;;;43.40;28.43;;;;;;;;;;5073649;28;20509;-70
2023/01/25 12:35:59;;;;;;;45.07;28.50;;;;;;;;;;5073948;28;25108;-70
2023/01/25 12:38:44;;;;;;;45.20;29.33;;;;;;;;;;5049849;28;25114;-71
2023/01/25 12:41:10;;;;;;;42.40;28.90;;;;;;;;;;5052653;28;25090;-71
2023/01/25 12:43:55;;;;;;;44.63;29.73;;;;;;;;;;5054536;28;25143;-71
2023/01/25 12:46:41;;;;;;;43.20;29.13;;;;;;;;;;5051521;28;20547;-71
2023/01/25 12:49:13;;;;;;;42.40;31.40;;;;;;;;;;5070928;28;20440;-70
2023/01/25 12:51:40;;;;;;;45.90;30.90;;;;;;;;;;5055616;28;25185;-71
2023/01/25 12:54:10;;;;;;;49.67;29.77;;;;;;;;;;5073472;28;20412;-70
2023/01/25 12:56:45;;;;;;;48.83;32.60;;;;;;;;;;5055345;28;25194;-71
2023/01/25 12:59:32;;;;;;;44.70;29.03;;;;;;;;;;5073945;28;25101;-70
2023/01/25 13:02:33;;;;;;;43.80;29.07;;;;;;;;;;5052731;28;25192;-70
2023/01/25 13:05:12;;;;;;;41.50;26.17;;;;;;;;;;5012405;28;25155;-71
2023/01/25 13:08:07;;;;;;;41.73;27.87;;;;;;;;;;5045359;28;20554;-71
2023/01/25 13:10:35;;;;;;;46.50;29.80;;;;;;;;;;5059960;28;25100;-71
2023/01/25 13:13:02;;;;;;;42.57;27.23;;;;;;;;;;5068998;28;20437;-70
2023/01/25 13:15:37;;;;;;;42.43;29.13;;;;;;;;;;5054836;28;20381;-71
2023/01/25 13:18:21;;;;;;;46.13;29.40;;;;;;;;;;5054272;28;25086;-71
2023/01/25 13:20:47;;;;;;;43.80;28.03;;;;;;;;;;5054198;28;25120;-71
2023/01/25 13:23:30;;;;;;;40.80;26.00;;;;;;;;;;5071345;28;25101;-71
2023/01/25 13:26:14;;;;;;;44.77;28.00;;;;;;;;;;5069773;28;25177;-71
2023/01/25 13:28:46;;;;;;;44.43;26.43;;;;;;;;;;5068980;28;25164;-71
2023/01/25 13:31:30;;;;;;;42.00;27.60;;;;;;;;;;5066846;28;25113;-70
2023/01/25 13:33:56;;;;;;;40.70;25.90;;;;;;;;;;5068647;28;25117;-71
2023/01/25 13:36:40;;;;;;;40.90;25.90;;;;;;;;;;5066439;28;25100;-70
2023/01/25 13:39:28;;;;;;;43.63;28.17;;;;;;;;;;5051710;28;25111;-70
2023/01/25 13:41:58;;;;;;;42.33;27.17;;;;;;;;;;5047996;28;20430;-70
2023/01/25 13:44:27;;;;;;;43.73;27.63;;;;;;;;;;5069772;28;20406;-71
2023/01/25 13:46:53;;;;;;;47.57;28.33;;;;;;;;;;5049840;28;20769;-71
2023/01/25 13:49:21;;;;;;;44.03;27.10;;;;;;;;;;5071628;28;20409;-71
2023/01/25 13:51:47;;;;;;;46.33;28.80;;;;;;;;;;5072446;28;20417;-71
2023/01/25 13:54:14;;;;;;;50.57;28.47;;;;;;;;;;5055306;28;20419;-70
2023/01/25 13:56:39;;;;;;;47.40;29.00;;;;;;;;;;5070312;28;25088;-71
2023/01/25 13:59:05;;;;;;;43.27;28.27;;;;;;;;;;5071077;28;25125;-70
2023/01/25 14:01:34;;;;;;;47.63;27.30;;;;;;;;;;5069990;28;20629;-70
2023/01/25 14:04:01;;;;;;;43.75;28.40;;;;;;;;;;5065512;28;25112;-71
2023/01/25 14:06:36;;;;;;;46.60;27.90;;;;;;;;;;5054259;28;25108;-70
2023/01/25 14:09:06;;;;;;;48.00;29.70;;;;;;;;;;5069778;28;25099;-71
2023/01/25 14:11:33;;;;;;;42.90;26.67;;;;;;;;;;5054617;28;25137;-71
2023/01/25 14:14:00;;;;;;;46.20;27.50;;;;;;;;;;5069119;28;20442;-71
2023/01/25 14:16:28;;;;;;;50.53;27.37;;;;;;;;;;5072598;28;25208;-71
2023/01/25 14:18:54;;;;;;;52.87;28.20;;;;;;;;;;5049632;28;25138;-72
2023/01/25 14:21:20;;;;;;;44.00;26.60;;;;;;;;;;5067751;28;25087;-71
2023/01/25 14:23:45;;;;;;;43.33;24.40;;;;;;;;;;5067463;28;25103;-71
2023/01/25 14:26:30;;;;;;;43.13;25.87;;;;;;;;;;5053859;28;25115;-71
2023/01/25 14:28:56;;;;;;;44.97;24.80;;;;;;;;;;5050678;28;25073;-71
2023/01/25 14:31:27;;;;;;;50.33;25.80;;;;;;;;;;5065826;28;25192;-73
2023/01/25 14:33:58;;;;;;;46.07;25.40;;;;;;;;;;5048771;28;20427;-72
2023/01/25 14:36:28;;;;;;;42.07;25.77;;;;;;;;;;5065530;28;20387;-72
2023/01/25 14:38:54;;;;;;;42.77;26.13;;;;;;;;;;5063696;28;25093;-73
2023/01/25 14:41:31;;;;;;;48.07;25.07;;;;;;;;;;5054331;28;25096;-72
2023/01/25 14:44:09;;;;;;;47.27;26.63;;;;;;;;;;5067992;28;20974;-72